Time;durP1;ratioP1;P1;durP2;ratioP2;P2;SDS_P1;SDS_P2;PMS_P1;PMS_P2;Temp;Humidity;BMP_temperature;BMP_pressure;BME280_temperature;BME280_humidity;BME280_pressure;Samples;Min_cycle;Max_cycle;Signal;HPM_P1;HPM_P2
2021/12/17 00:04:37;;;;;;;9.05;6.60;;;;;;;18.96;48.96;103903.50;5034456;28;20044;-65
2021/12/17 00:07:11;;;;;;;8.48;6.03;;;;;;;18.96;48.94;103910.56;5034019;28;20037;-65
2021/12/17 00:09:38;;;;;;;8.63;5.65;;;;;;;18.95;48.72;103903.56;5034372;28;20022;-65
2021/12/17 00:12:05;;;;;;;8.75;5.80;;;;;;;18.94;48.59;103904.47;5033175;28;20025;-66
2021/12/17 00:14:36;;;;;;;7.68;5.72;;;;;;;18.91;48.68;103909.88;5033754;28;20032;-65
2021/12/17 00:17:05;;;;;;;8.73;5.80;;;;;;;18.91;48.45;103896.66;5033180;28;20467;-65
2021/12/17 00:49:25;;;;;;;8.75;5.90;;;;;;;18.76;48.35;103888.34;5033215;28;20060;-66
2021/12/17 00:52:01;;;;;;;7.90;5.70;;;;;;;18.75;48.19;103889.25;5032788;28;20029;-65
2021/12/17 00:54:40;;;;;;;7.97;6.07;;;;;;;18.75;48.04;103888.38;5032256;28;20018;-65
2021/12/17 00:57:23;;;;;;;9.18;5.85;;;;;;;18.74;48.32;103886.66;5032792;28;20132;-65
2021/12/17 00:59:51;;;;;;;7.88;5.60;;;;;;;18.73;48.14;103885.81;5032426;28;20035;-65
2021/12/17 01:02:20;;;;;;;8.38;5.95;;;;;;;18.73;48.31;103890.22;5032323;28;20481;-65
2021/12/17 01:04:50;;;;;;;10.20;5.75;;;;;;;18.72;48.37;103886.69;5032145;28;20469;-65
2021/12/17 01:07:19;;;;;;;7.97;5.70;;;;;;;18.71;47.87;103887.66;5032905;28;20029;-66
2021/12/17 01:09:45;;;;;;;8.60;5.43;;;;;;;18.69;48.05;103884.16;5031526;28;20088;-66
2021/12/17 01:12:14;;;;;;;8.02;5.60;;;;;;;18.70;48.15;103885.91;5032681;28;20034;-66
2021/12/17 01:14:42;;;;;;;8.00;5.55;;;;;;;18.68;48.30;103879.81;5032396;28;20036;-66
2021/12/17 01:17:12;;;;;;;7.43;5.57;;;;;;;18.67;48.26;103873.69;5032083;28;20116;-66
2021/12/17 01:24:59;;;;;;;7.35;5.53;;;;;;;18.65;48.06;103869.38;5032134;28;20056;-66
2021/12/17 01:35:37;;;;;;;7.32;5.28;;;;;;;18.61;48.13;103876.53;5032877;28;20103;-66
2021/12/17 01:39:04;;;;;;;7.65;5.88;;;;;;;18.61;48.04;103873.03;5031855;28;20029;-66
2021/12/17 01:43:48;;;;;;;7.45;4.95;;;;;;;18.59;48.25;103866.94;5035633;28;20040;-66
2021/12/17 01:46:20;;;;;;;7.90;5.72;;;;;;;18.59;47.87;103866.94;5036323;28;20032;-66
2021/12/17 01:49:00;;;;;;;7.28;5.55;;;;;;;18.59;48.13;103872.22;5036003;28;20025;-66
2021/12/17 01:56:59;;;;;;;7.70;5.80;;;;;;;18.56;47.91;103867.91;5035790;28;20103;-66
2021/12/17 01:59:36;;;;;;;8.52;5.60;;;;;;;18.56;47.92;103870.53;5036062;28;20084;-66
2021/12/17 02:02:05;;;;;;;7.15;5.53;;;;;;;18.55;48.04;103867.94;5035648;28;20461;-66
2021/12/17 02:04:32;;;;;;;8.63;5.88;;;;;;;18.55;47.97;103873.22;5035155;28;20397;-66
2021/12/17 02:06:59;;;;;;;7.10;5.03;;;;;;;18.54;47.91;103868.91;5035776;28;20108;-66
2021/12/17 02:32:00;;;;;;;7.60;5.57;;;;;;;18.48;47.95;103870.84;5035383;28;20040;-66
2021/12/17 02:37:05;;;;;;;7.47;5.38;;;;;;;18.46;47.95;103872.66;5035126;28;20037;-66
2021/12/17 02:40:02;;;;;;;7.68;5.53;;;;;;;18.46;48.03;103879.72;5034370;28;20029;-66
2021/12/17 02:42:49;;;;;;;6.75;5.28;;;;;;;18.45;47.95;103884.16;5035161;28;20473;-66
2021/12/17 02:45:32;;;;;;;7.60;5.45;;;;;;;18.45;48.16;103885.91;5035050;28;20111;-66
2021/12/17 02:48:09;;;;;;;7.60;5.90;;;;;;;18.45;48.09;103875.34;5033992;28;20021;-66
2021/12/17 02:50:37;;;;;;;8.75;6.22;;;;;;;18.44;48.03;103874.50;5034668;28;20029;-66
2021/12/17 02:53:07;;;;;;;7.13;5.30;;;;;;;18.43;47.87;103870.13;5034722;28;20060;-66
2021/12/17 02:55:40;;;;;;;7.25;5.53;;;;;;;18.44;48.05;103865.72;5034298;28;20057;-65
2021/12/17 02:58:07;;;;;;;7.95;6.10;;;;;;;18.43;48.28;103878.03;5034861;28;20029;-65
2021/12/17 03:00:33;;;;;;;8.13;5.97;;;;;;;18.43;47.87;103875.41;5033973;28;20036;-65
2021/12/17 03:03:03;;;;;;;8.15;5.90;;;;;;;18.43;48.25;103863.97;5034402;28;20657;-66
2021/12/17 03:05:28;;;;;;;7.85;5.70;;;;;;;18.41;48.01;103866.66;5034694;28;20401;-66
2021/12/17 03:07:56;;;;;;;8.35;5.82;;;;;;;18.41;47.95;103865.81;5033783;28;20021;-65
2021/12/17 03:10:21;;;;;;;8.88;5.88;;;;;;;18.41;48.12;103865.81;5034746;28;20043;-66
2021/12/17 03:13:00;;;;;;;9.15;5.80;;;;;;;18.40;47.99;103872.84;5034319;28;20026;-67
2021/12/17 03:18:50;;;;;;;8.27;6.10;;;;;;;18.39;48.20;103863.22;5034556;28;20040;-66
2021/12/17 03:23:50;;;;;;;8.48;5.95;;;;;;;18.37;48.19;103872.97;5034081;28;20040;-66
2021/12/17 03:26:22;;;;;;;8.57;6.43;;;;;;;18.38;48.00;103879.97;5034427;28;20025;-65
2021/12/17 03:28:53;;;;;;;8.10;6.18;;;;;;;18.38;47.80;103879.97;5033430;28;20021;-65
2021/12/17 03:31:19;;;;;;;7.78;5.80;;;;;;;18.36;47.92;103889.75;5034258;28;20063;-65
2021/12/17 03:34:00;;;;;;;9.15;6.38;;;;;;;18.37;48.12;103890.59;5033822;28;20025;-66
2021/12/17 03:36:27;;;;;;;8.48;6.00;;;;;;;18.36;47.94;103887.09;5033509;28;20069;-65
2021/12/17 03:38:52;;;;;;;8.80;6.43;;;;;;;18.36;47.87;103891.50;5033771;28;20100;-67
2021/12/17 03:41:26;;;;;;;8.40;6.28;;;;;;;18.36;48.09;103883.56;5034214;28;20041;-66
2021/12/17 03:43:54;;;;;;;9.55;7.05;;;;;;;18.34;47.93;103881.03;5032973;28;20064;-66
2021/12/17 03:46:21;;;;;;;9.95;6.47;;;;;;;18.34;48.27;103878.38;5033904;28;20078;-66
2021/12/17 03:48:46;;;;;;;9.27;7.13;;;;;;;18.32;48.15;103880.19;5034006;28;20065;-66
2021/12/17 03:51:15;;;;;;;10.25;6.32;;;;;;;18.33;47.98;103883.72;5033309;28;20507;-66
2021/12/17 03:53:43;;;;;;;9.30;6.38;;;;;;;18.33;48.03;103881.94;5033622;28;20084;-66
2021/12/17 03:56:09;;;;;;;10.38;6.72;;;;;;;18.30;48.13;103879.38;5033827;28;20037;-65
2021/12/17 03:58:35;;;;;;;9.95;6.50;;;;;;;18.33;47.84;103879.28;5032948;28;20028;-65
2021/12/17 04:01:00;;;;;;;9.75;6.30;;;;;;;18.31;48.11;103879.34;5032618;28;20029;-65
2021/12/17 04:03:28;;;;;;;10.07;6.55;;;;;;;18.31;48.09;103883.75;5033753;28;20022;-65
2021/12/17 04:05:54;;;;;;;10.80;6.88;;;;;;;18.30;47.87;103882.88;5032666;28;20041;-66
2021/12/17 04:08:19;;;;;;;10.60;6.88;;;;;;;18.30;47.99;103884.66;5033728;28;20033;-66
2021/12/17 04:10:49;;;;;;;11.18;7.57;;;;;;;18.30;48.04;103874.97;5032475;28;20161;-66
2021/12/17 04:13:26;;;;;;;11.30;6.95;;;;;;;18.30;48.08;103879.38;5033437;28;20033;-65
2021/12/17 04:15:58;;;;;;;9.10;6.18;;;;;;;18.29;48.03;103875.91;5033110;28;20539;-66
2021/12/17 04:18:24;;;;;;;9.57;6.30;;;;;;;18.30;48.17;103874.09;5032508;28;20033;-66
2021/12/17 04:20:53;;;;;;;9.57;6.50;;;;;;;18.33;48.75;103870.50;5033201;28;20033;-66
2021/12/17 04:23:22;;;;;;;9.95;6.07;;;;;;;18.34;48.46;103874.84;5033157;28;20469;-66
2021/12/17 04:25:49;;;;;;;9.20;5.90;;;;;;;18.34;48.31;103869.56;5032205;28;20025;-66
2021/12/17 04:28:16;;;;;;;8.98;6.18;;;;;;;18.36;48.59;103873.91;5033324;28;20041;-66
2021/12/17 04:30:42;;;;;;;10.30;6.55;;;;;;;18.39;48.57;103875.56;5033053;28;20056;-66
2021/12/17 04:33:07;;;;;;;8.60;6.13;;;;;;;18.38;48.43;103874.69;5032588;28;20486;-66
2021/12/17 04:35:33;;;;;;;10.00;6.65;;;;;;;18.40;48.50;103872.00;5033280;28;20484;-65
2021/12/17 04:37:59;;;;;;;10.50;6.90;;;;;;;18.41;48.43;103871.09;5032829;28;20470;-65
2021/12/17 04:40:26;;;;;;;9.60;6.20;;;;;;;18.41;48.44;103874.59;5032206;28;20030;-65
2021/12/17 04:43:11;;;;;;;10.30;6.10;;;;;;;18.42;48.30;103878.09;5032848;28;20056;-65
2021/12/17 04:45:42;;;;;;;10.18;6.38;;;;;;;18.43;48.11;103875.41;5032999;28;20056;-65
2021/12/17 04:59:20;;;;;;;10.93;6.47;;;;;;;18.43;47.79;103864.84;5029248;28;20409;-66
2021/12/17 05:01:46;;;;;;;9.23;6.32;;;;;;;18.42;47.78;103871.06;5031870;28;20021;-66
2021/12/17 05:04:11;;;;;;;9.68;6.63;;;;;;;18.41;47.84;103869.31;5032554;28;20057;-66
2021/12/17 05:06:36;;;;;;;10.32;6.68;;;;;;;18.43;47.93;103871.91;5032683;28;20104;-66
2021/12/17 05:09:10;;;;;;;10.70;6.75;;;;;;;18.42;47.90;103876.34;5031506;28;20037;-66
2021/12/17 05:19:45;;;;;;;11.32;6.68;;;;;;;18.41;48.02;103871.09;5032330;28;20052;-66
2021/12/17 05:22:12;;;;;;;9.30;6.07;;;;;;;18.41;48.46;103874.59;5031621;28;20400;-66
2021/12/17 05:24:37;;;;;;;10.32;6.55;;;;;;;18.42;48.43;103871.06;5032513;28;20049;-66
2021/12/17 05:27:04;;;;;;;9.85;6.70;;;;;;;18.44;48.48;103876.28;5032274;28;20018;-67
2021/12/17 05:29:29;;;;;;;9.68;6.20;;;;;;;18.44;48.31;103881.56;5031557;28;20037;-66
2021/12/17 05:31:55;;;;;;;11.43;6.47;;;;;;;18.46;48.44;103883.22;5031993;28;20385;-66
2021/12/17 05:34:20;;;;;;;10.40;6.47;;;;;;;18.46;48.30;103877.09;5032216;28;20473;-66
2021/12/17 05:36:45;;;;;;;10.98;7.22;;;;;;;18.46;48.59;103883.22;5031042;28;20298;-66
2021/12/17 05:39:10;;;;;;;10.20;6.18;;;;;;;18.47;48.18;103884.09;5032355;28;20096;-66
2021/12/17 05:41:36;;;;;;;9.90;6.23;;;;;;;18.48;48.43;103886.69;5032401;28;20041;-66
2021/12/17 05:44:01;;;;;;;12.52;6.55;;;;;;;18.45;48.37;103886.78;5031232;28;20317;-66
2021/12/17 05:46:48;;;;;;;10.82;6.50;;;;;;;18.48;48.22;103896.38;5032099;28;20108;-66
2021/12/17 05:49:11;;;;;;;9.60;5.70;;;;;;;18.48;47.96;103883.16;5031257;28;20393;-66
2021/12/17 05:51:37;;;;;;;10.38;6.95;;;;;;;18.48;48.08;103880.53;5032281;28;20033;-66
2021/12/17 05:54:02;;;;;;;11.48;7.13;;;;;;;18.49;47.88;103882.25;5031979;28;20022;-64
2021/12/17 05:56:30;;;;;;;9.38;6.32;;;;;;;18.49;48.00;103880.47;5031449;28;20017;-65
2021/12/17 05:58:56;;;;;;;10.73;6.28;;;;;;;18.48;47.82;103880.53;5031641;28;20165;-65
2021/12/17 06:01:22;;;;;;;11.07;7.20;;;;;;;18.47;48.05;103877.03;5031994;28;20069;-66
2021/12/17 06:03:47;;;;;;;10.75;6.38;;;;;;;18.48;47.58;103888.44;5030827;28;20436;-66
2021/12/17 06:06:47;;;;;;;11.00;6.57;;;;;;;18.47;47.65;103890.22;5032028;28;20052;-66
2021/12/17 06:09:12;;;;;;;9.40;6.38;;;;;;;18.47;48.31;103890.22;5031925;28;20634;-66
2021/12/17 06:11:38;;;;;;;10.73;6.45;;;;;;;18.48;48.55;103894.59;5031270;28;20105;-65
2021/12/17 06:14:05;;;;;;;7.97;5.00;;;;;;;18.48;48.60;103891.09;5031646;28;20381;-66
2021/12/17 06:16:33;;;;;;;8.27;5.32;;;;;;;18.51;48.69;103900.69;5031847;28;20282;-63
2021/12/17 06:18:58;;;;;;;9.20;5.68;;;;;;;18.51;48.78;103898.03;5030532;28;20140;-65
2021/12/17 06:21:24;;;;;;;8.45;5.47;;;;;;;18.52;48.79;103900.63;5031541;28;20416;-66
2021/12/17 06:23:50;;;;;;;7.20;4.85;;;;;;;18.53;49.05;103896.22;5031528;28;20046;-65
2021/12/17 06:26:15;;;;;;;12.85;5.70;;;;;;;18.54;48.54;103906.72;5034253;28;20502;-66
2021/12/17 06:28:40;;;;;;;10.38;5.78;;;;;;;18.55;48.73;103907.56;5035086;28;20029;-67
2021/12/17 06:31:06;;;;;;;8.48;4.80;;;;;;;18.56;48.52;103901.38;5035243;28;20028;-66
2021/12/17 06:33:31;;;;;;;18.50;5.27;;;;;;;18.58;48.37;103913.63;5034547;28;20026;-64
2021/12/17 06:35:56;;;;;;;8.77;4.50;;;;;;;18.61;48.92;103907.34;5035011;28;20279;-65
2021/12/17 06:38:22;;;;;;;6.63;4.00;;;;;;;18.63;49.11;103910.84;5034529;28;20034;-64
2021/12/17 06:40:48;;;;;;;7.30;4.25;;;;;;;18.65;48.73;103912.47;5034812;28;20381;-64
2021/12/17 06:43:14;;;;;;;7.25;4.05;;;;;;;18.68;48.89;103916.81;5034939;28;20525;-64
2021/12/17 06:48:14;;;;;;;;;;;;;;;18.71;49.01;103907.91;5035646;28;20075;-64
2021/12/17 07:07:13;;;;;;;8.32;3.70;;;;;;;18.93;49.72;103903.63;5033958;28;20486;-66
2021/12/17 07:21:18;;;;;;;8.68;3.97;;;;;;;19.04;50.00;103924.34;5011608;28;20041;-65
2021/12/17 07:32:18;;;;;;;8.18;3.97;;;;;;;19.05;50.01;103920.78;5034418;28;20037;-65
2021/12/17 07:39:54;;;;;;;8.13;3.90;;;;;;;19.05;50.16;103907.56;5033841;28;20037;-64
2021/12/17 07:42:19;;;;;;;7.55;3.47;;;;;;;19.05;50.39;103904.94;5033198;28;20532;-64
2021/12/17 07:44:50;;;;;;;6.32;3.45;;;;;;;19.06;50.16;103906.66;5033620;28;20168;-64
2021/12/17 07:47:16;;;;;;;8.10;3.70;;;;;;;19.07;50.46;103902.22;5034013;28;20026;-64
2021/12/17 07:49:41;;;;;;;6.90;3.83;;;;;;;19.08;50.18;103907.47;5032803;28;20179;-64
2021/12/17 07:52:09;;;;;;;7.47;3.40;;;;;;;19.08;50.27;103902.19;5033663;28;20274;-65
2021/12/17 07:54:34;;;;;;;6.90;3.58;;;;;;;19.09;50.15;103903.91;5033931;28;20025;-65
2021/12/17 07:57:00;;;;;;;7.38;3.63;;;;;;;19.08;50.08;103903.97;5032836;28;20043;-63
2021/12/17 07:59:28;;;;;;;7.40;3.28;;;;;;;19.08;50.09;103902.19;5033763;28;20473;-66
2021/12/17 08:01:53;;;;;;;8.13;3.85;;;;;;;19.09;50.36;103903.03;5033288;28;20120;-66
2021/12/17 08:04:19;;;;;;;6.20;3.37;;;;;;;19.08;50.18;103902.19;5032680;28;20053;-66
2021/12/17 08:06:44;;;;;;;7.80;4.37;;;;;;;19.08;49.64;103907.47;5032945;28;20283;-65
2021/12/17 08:09:10;;;;;;;8.23;3.80;;;;;;;19.06;49.99;103905.78;5033589;28;20275;-64
2021/12/17 08:11:39;;;;;;;8.02;3.50;;;;;;;19.06;50.10;103911.97;5032882;28;20025;-65
2021/12/17 08:14:09;;;;;;;6.70;3.60;;;;;;;19.06;50.02;103908.44;5033395;28;20028;-67
2021/12/17 08:16:43;;;;;;;6.95;3.35;;;;;;;19.05;50.44;103902.28;5033367;28;20397;-66
2021/12/17 08:23:20;;;;;;;7.68;3.70;;;;;;;19.06;50.16;103904.03;5032429;28;20061;-67
2021/12/17 08:32:01;;;;;;;7.05;3.70;;;;;;;19.08;50.14;103920.69;5032385;28;20243;-66
2021/12/17 08:34:26;;;;;;;7.50;3.67;;;;;;;19.09;50.14;103929.47;5033263;28;20034;-66
2021/12/17 08:37:05;;;;;;;8.18;3.65;;;;;;;19.07;50.10;103939.25;5032873;28;20108;-66
2021/12/17 08:39:34;;;;;;;8.43;4.13;;;;;;;19.07;50.22;103934.81;5032356;28;20473;-66
2021/12/17 08:42:00;;;;;;;8.60;4.22;;;;;;;19.08;50.39;103935.69;5032519;28;20869;-65
2021/12/17 08:44:26;;;;;;;7.78;3.65;;;;;;;19.10;50.56;103932.06;5033799;28;20555;-64
2021/12/17 08:46:51;;;;;;;7.22;3.83;;;;;;;19.23;50.14;103940.38;5031882;28;20068;-64
2021/12/17 08:49:17;;;;;;;8.30;4.45;;;;;;;19.39;49.76;103940.66;5033641;28;20049;-66
2021/12/17 08:51:43;;;;;;;8.40;4.25;;;;;;;19.56;49.24;103938.25;5033127;28;20049;-68
2021/12/17 08:54:09;;;;;;;7.55;4.72;;;;;;;19.70;48.76;103926.28;5032140;28;20021;-65
2021/12/17 08:56:37;;;;;;;8.90;4.32;;;;;;;19.80;48.54;103930.31;5033014;28;20030;-67
2021/12/17 08:59:29;;;;;;;10.05;4.32;;;;;;;19.80;48.21;103922.38;5032019;28;20022;-67
2021/12/17 09:01:54;;;;;;;6.53;4.25;;;;;;;19.82;48.20;103922.31;5032867;28;20053;-66
2021/12/17 09:04:20;;;;;;;6.53;3.85;;;;;;;19.84;47.91;103920.47;5033173;28;20489;-68
2021/12/17 09:06:45;;;;;;;9.50;4.43;;;;;;;19.78;48.24;103932.16;5031749;28;20436;-67
2021/12/17 09:09:11;;;;;;;7.65;4.80;;;;;;;19.70;48.17;103928.94;5032461;28;20052;-67
2021/12/17 09:11:36;;;;;;;7.32;4.15;;;;;;;19.61;48.56;103930.13;5032401;28;20025;-68
2021/12/17 09:14:04;;;;;;;6.55;4.20;;;;;;;19.54;48.44;103939.25;5031608;28;20064;-68
2021/12/17 09:16:30;;;;;;;6.97;4.35;;;;;;;19.49;48.75;103944.72;5032414;28;20504;-67
2021/12/17 09:18:56;;;;;;;7.35;4.50;;;;;;;19.44;48.78;103946.69;5032235;28;20049;-67
2021/12/17 09:21:21;;;;;;;7.15;4.68;;;;;;;19.39;48.69;103943.31;5031804;28;20025;-67
2021/12/17 09:23:47;;;;;;;8.07;4.35;;;;;;;19.35;48.82;103949.66;5031645;28;20037;-68
2021/12/17 09:26:15;;;;;;;10.00;4.70;;;;;;;19.32;48.99;103955.06;5032217;28;20068;-68
2021/12/17 09:28:40;;;;;;;8.27;4.30;;;;;;;19.28;49.00;103962.25;5031191;28;20526;-67
2021/12/17 09:31:11;;;;;;;7.57;4.30;;;;;;;19.27;49.18;103971.09;5032435;28;20041;-67
2021/12/17 09:33:37;;;;;;;7.68;4.07;;;;;;;19.25;49.13;103966.78;5032350;28;20279;-68
2021/12/17 09:36:02;;;;;;;7.00;4.30;;;;;;;19.23;49.15;103971.25;5031484;28;20029;-68
2021/12/17 09:38:28;;;;;;;8.30;4.25;;;;;;;19.23;49.11;103973.91;5032202;28;20473;-68
2021/12/17 09:40:54;;;;;;;9.95;4.53;;;;;;;19.21;49.04;103976.59;5032141;28;20556;-68
2021/12/17 09:43:19;;;;;;;7.78;4.65;;;;;;;19.21;48.95;103981.91;5031585;28;20044;-68
2021/12/17 09:45:45;;;;;;;6.05;4.18;;;;;;;19.18;48.95;103974.97;5031945;28;20428;-67
2021/12/17 09:48:13;;;;;;;9.35;4.60;;;;;;;19.18;49.05;103974.97;5035217;28;20033;-67
2021/12/17 09:50:38;;;;;;;6.55;4.18;;;;;;;19.17;49.04;103983.81;5032695;28;20035;-68
2021/12/17 09:53:03;;;;;;;6.63;4.53;;;;;;;19.17;49.08;103985.59;5031828;28;20096;-68
2021/12/17 09:55:28;;;;;;;8.05;4.32;;;;;;;19.16;48.98;103990.00;5033192;28;20277;-69
2021/12/17 09:57:54;;;;;;;8.18;4.38;;;;;;;19.15;48.99;103992.69;5031989;28;20025;-68
2021/12/17 10:00:23;;;;;;;7.20;4.45;;;;;;;19.14;49.12;103985.69;5034095;28;20017;-67
2021/12/17 10:02:49;;;;;;;6.57;4.32;;;;;;;19.14;48.97;103986.56;5035038;28;20366;-68
2021/12/17 10:05:21;;;;;;;7.43;4.78;;;;;;;19.14;49.08;103994.47;5037224;28;20534;-69
2021/12/17 10:07:59;;;;;;;7.80;4.30;;;;;;;19.14;48.87;103988.34;5036090;28;20090;-68
2021/12/17 10:10:33;;;;;;;8.30;4.50;;;;;;;19.11;49.03;103986.66;5035203;28;19913;-69
2021/12/17 10:13:07;;;;;;;6.53;4.57;;;;;;;19.12;48.78;103998.09;5035514;28;20088;-68
2021/12/17 10:15:35;;;;;;;7.10;4.47;;;;;;;19.11;48.91;103991.94;5035729;28;20030;-69
2021/12/17 10:18:01;;;;;;;6.85;4.47;;;;;;;19.11;48.91;103996.38;5034541;28;20069;-68
2021/12/17 10:20:33;;;;;;;6.82;4.13;;;;;;;19.11;48.61;103996.38;5035480;28;20049;-69
2021/12/17 10:23:14;;;;;;;6.72;4.40;;;;;;;19.11;48.88;103999.03;5036795;28;20026;-68
2021/12/17 10:25:43;;;;;;;6.55;4.05;;;;;;;19.09;48.87;103996.44;5034837;28;20026;-69
2021/12/17 10:28:13;;;;;;;7.03;4.03;;;;;;;19.11;48.94;104001.66;5035823;28;20032;-67
2021/12/17 10:30:42;;;;;;;8.10;4.10;;;;;;;19.09;49.01;103993.78;5035090;28;20377;-67
2021/12/17 10:33:10;;;;;;;6.40;3.90;;;;;;;19.13;49.05;104005.97;5035981;28;20025;-69
2021/12/17 10:35:38;;;;;;;7.68;4.18;;;;;;;19.17;48.78;103998.81;5037802;28;20106;-68
2021/12/17 10:38:08;;;;;;;8.32;4.13;;;;;;;19.26;48.51;104000.25;5035198;28;20052;-67
2021/12/17 10:40:36;;;;;;;7.68;3.90;;;;;;;19.31;48.48;103993.00;5037275;28;20049;-67
2021/12/17 10:43:15;;;;;;;5.40;3.78;;;;;;;19.31;48.55;103996.53;5036399;28;20030;-70
2021/12/17 10:45:58;;;;;;;6.95;3.70;;;;;;;19.28;48.62;104001.91;5036245;28;20029;-67
2021/12/17 10:50:52;;;;;;;6.68;3.83;;;;;;;19.21;48.43;103993.31;5040237;28;20026;-68
2021/12/17 10:53:22;;;;;;;6.13;3.45;;;;;;;19.21;48.47;103997.75;5041546;28;20044;-68
2021/12/17 10:55:48;;;;;;;5.68;3.50;;;;;;;19.25;48.20;104001.16;5037661;28;20037;-69
2021/12/17 10:58:13;;;;;;;6.85;3.90;;;;;;;19.28;48.18;104001.03;5041216;28;20428;-68
2021/12/17 11:00:57;;;;;;;7.53;3.47;;;;;;;19.32;48.03;104000.03;5037992;28;20030;-65
2021/12/17 11:03:23;;;;;;;6.10;3.63;;;;;;;19.37;48.22;104003.34;5040349;28;20037;-68
2021/12/17 11:05:48;;;;;;;5.88;3.30;;;;;;;19.37;48.22;104000.72;5038010;28;20052;-67
2021/12/17 11:08:30;;;;;;;5.20;3.40;;;;;;;19.32;48.15;104000.88;5040304;28;20436;-67
2021/12/17 11:11:05;;;;;;;6.00;3.38;;;;;;;19.29;48.28;103997.50;5038024;28;20037;-68
2021/12/17 11:13:30;;;;;;;5.82;3.45;;;;;;;19.24;48.38;103999.44;5039492;28;20021;-68
2021/12/17 11:15:56;;;;;;;6.03;3.38;;;;;;;19.27;48.43;104000.19;5039810;28;20370;-66
2021/12/17 11:18:25;;;;;;;5.65;3.42;;;;;;;19.38;48.06;103994.50;5037672;28;20025;-66
2021/12/17 11:20:52;;;;;;;6.78;3.70;;;;;;;19.48;48.00;103992.38;5034501;28;20037;-67
2021/12/17 11:23:18;;;;;;;6.05;3.53;;;;;;;19.52;47.72;103986.91;5035002;28;20029;-67
2021/12/17 11:25:47;;;;;;;5.10;2.95;;;;;;;19.52;47.76;103992.22;5034184;28;20041;-65
2021/12/17 11:28:12;;;;;;;5.78;3.30;;;;;;;19.48;47.85;103990.59;5033777;28;20041;-66
2021/12/17 11:30:43;;;;;;;5.88;3.10;;;;;;;19.43;48.15;103984.63;5034460;28;20025;-66
2021/12/17 11:33:09;;;;;;;5.50;3.10;;;;;;;19.40;48.21;103976.78;5034418;28;20461;-66
2021/12/17 11:35:37;;;;;;;5.82;3.10;;;;;;;19.36;48.17;103983.97;5033561;28;20469;-65
2021/12/17 11:38:20;;;;;;;6.07;3.00;;;;;;;19.33;48.11;103973.53;5034215;28;20021;-65
2021/12/17 11:40:52;;;;;;;5.15;2.88;;;;;;;19.35;48.03;103969.03;5033873;28;20029;-64
2021/12/17 11:43:52;;;;;;;5.38;2.97;;;;;;;19.38;48.27;103968.06;5034334;28;20022;-65
2021/12/17 11:46:32;;;;;;;6.75;3.17;;;;;;;19.35;47.94;103963.72;5034217;28;20072;-66
2021/12/17 11:49:00;;;;;;;6.97;2.97;;;;;;;19.33;48.02;103960.28;5032962;28;20067;-67
2021/12/17 11:51:31;;;;;;;6.20;2.90;;;;;;;19.29;48.38;103952.53;5033696;28;20500;-66
2021/12/17 11:54:04;;;;;;;5.85;2.75;;;;;;;19.27;48.20;103949.94;5033430;28;20025;-68
2021/12/17 11:56:36;;;;;;;6.60;3.03;;;;;;;19.32;48.39;103955.91;5033553;28;20064;-62
2021/12/17 11:59:02;;;;;;;6.18;3.20;;;;;;;19.41;48.00;103952.09;5034005;28;20485;-62
2021/12/17 12:01:49;;;;;;;7.45;2.78;;;;;;;19.51;47.92;103947.28;5034884;28;20104;-65
2021/12/17 12:04:22;;;;;;;5.95;2.75;;;;;;;19.60;47.57;103952.25;5034749;28;20051;-64
2021/12/17 12:07:02;;;;;;;5.05;2.58;;;;;;;19.67;47.64;103950.22;5034645;28;20104;-67
2021/12/17 12:09:56;;;;;;;4.63;2.63;;;;;;;19.64;47.61;103943.25;5032766;28;20103;-65
2021/12/17 12:12:41;;;;;;;5.78;3.13;;;;;;;19.57;47.10;103947.91;5033403;28;20053;-66
2021/12/17 12:15:27;;;;;;;5.88;2.80;;;;;;;19.50;47.49;103957.03;5033730;28;20108;-66
2021/12/17 12:18:06;;;;;;;5.55;2.75;;;;;;;19.45;47.69;103964.25;5032364;28;20371;-65
2021/12/17 12:20:47;;;;;;;5.07;2.60;;;;;;;19.41;48.03;103967.94;5033046;28;20053;-67
2021/12/17 12:23:27;;;;;;;5.03;2.58;;;;;;;19.37;48.14;103964.53;5031592;28;20033;-66
2021/12/17 12:26:05;;;;;;;5.25;2.50;;;;;;;19.34;48.18;103962.03;5032972;28;20040;-65
2021/12/17 12:28:48;;;;;;;5.15;3.22;;;;;;;19.32;48.29;103969.13;5033410;28;20045;-66
2021/12/17 12:31:36;;;;;;;5.03;2.33;;;;;;;19.29;48.41;103963.97;5032377;28;20021;-67
2021/12/17 12:36:49;;;;;;;4.70;2.33;;;;;;;19.27;48.20;103959.66;5033244;28;20038;-67
2021/12/17 12:39:35;;;;;;;6.28;2.53;;;;;;;19.23;48.67;103950.97;5032249;28;20045;-66
2021/12/17 12:42:19;;;;;;;5.30;2.30;;;;;;;19.23;48.81;103952.75;5032832;28;20033;-65
2021/12/17 12:44:44;;;;;;;5.20;2.20;;;;;;;19.21;48.79;103952.81;5031640;28;20045;-66
2021/12/17 12:47:35;;;;;;;8.15;2.30;;;;;;;19.20;48.76;103941.38;5032795;28;20383;-67
2021/12/17 12:50:04;;;;;;;5.22;2.25;;;;;;;19.20;48.80;103941.38;5032389;28;20036;-66
2021/12/17 12:52:33;;;;;;;4.65;2.30;;;;;;;19.19;48.82;103938.78;5032222;28;20108;-66
2021/12/17 12:55:08;;;;;;;5.47;2.13;;;;;;;19.19;48.83;103946.72;5032785;28;20444;-66
2021/12/17 12:57:34;;;;;;;;;;;;;;;19.15;49.17;103940.69;5033272;28;20478;-66
2021/12/17 13:00:05;;;;;;;4.10;2.10;;;;;;;19.16;49.15;103937.13;5031782;28;19917;-66
2021/12/17 13:02:33;;;;;;;4.15;2.15;;;;;;;19.17;48.94;103936.22;5032645;28;20021;-66
2021/12/17 13:05:06;;;;;;;5.15;2.38;;;;;;;19.17;49.02;103938.00;5032125;28;21044;-66
2021/12/17 13:07:35;;;;;;;4.00;1.90;;;;;;;19.17;49.03;103938.00;5032267;28;20037;-66
2021/12/17 13:10:16;;;;;;;4.40;2.10;;;;;;;19.16;48.81;103939.75;5032424;28;20036;-66
2021/12/17 13:12:49;;;;;;;4.97;2.10;;;;;;;19.16;48.79;103939.75;5031659;28;20128;-66
2021/12/17 13:23:38;;;;;;;4.07;2.00;;;;;;;19.15;48.71;103940.69;5032369;28;20075;-66
2021/12/17 13:26:10;;;;;;;4.10;1.77;;;;;;;19.15;48.85;103948.63;5032253;28;20089;-65
2021/12/17 13:28:55;;;;;;;3.83;1.83;;;;;;;19.14;48.83;103949.53;5032009;28;20037;-66
2021/12/17 13:31:43;;;;;;;4.05;1.92;;;;;;;19.14;48.77;103948.69;5032423;28;20453;-65
2021/12/17 13:34:20;;;;;;;3.63;1.67;;;;;;;19.15;48.74;103942.47;5033502;28;20559;-66
2021/12/17 13:37:16;;;;;;;4.47;2.42;;;;;;;19.12;47.56;103942.56;5036351;28;20036;-65
2021/12/17 13:39:46;;;;;;;5.50;2.40;;;;;;;19.09;48.19;103940.91;5036094;28;20108;-64
2021/12/17 13:42:17;;;;;;;4.38;2.03;;;;;;;19.08;48.27;103944.47;5035442;28;20037;-73
2021/12/17 13:44:49;;;;;;;3.58;1.83;;;;;;;19.07;48.36;103941.88;5036198;28;20026;-71
2021/12/17 13:47:14;;;;;;;4.00;1.80;;;;;;;19.08;48.47;103946.25;5036062;28;20041;-69
2021/12/17 13:49:43;;;;;;;4.22;1.80;;;;;;;19.09;48.56;103942.69;5035186;28;20037;-68
2021/12/17 13:52:09;;;;;;;5.38;2.47;;;;;;;19.05;47.51;103926.09;5036087;28;20025;-67
2021/12/17 13:54:36;;;;;;;5.57;2.10;;;;;;;19.06;48.22;103937.50;5035177;28;20432;-67
2021/12/17 13:57:04;;;;;;;4.20;2.10;;;;;;;19.05;48.79;103941.94;5035878;28;20046;-67
2021/12/17 13:59:31;;;;;;;4.00;2.08;;;;;;;19.05;48.54;103941.94;5035824;28;20437;-66
2021/12/17 14:01:57;;;;;;;3.50;1.73;;;;;;;19.06;48.54;103946.31;5034931;28;20047;-67
2021/12/17 14:04:22;;;;;;;3.83;1.77;;;;;;;19.07;48.68;103947.16;5035881;28;20109;-65
2021/12/17 14:06:52;;;;;;;3.03;1.45;;;;;;;19.07;48.42;103950.66;5035503;28;20048;-66
2021/12/17 14:09:21;;;;;;;4.30;1.60;;;;;;;19.08;48.35;103956.84;5034890;28;20033;-66
2021/12/17 14:11:47;;;;;;;3.67;1.67;;;;;;;19.07;48.46;103947.16;5035622;28;20424;-68
2021/12/17 14:14:22;;;;;;;4.28;1.60;;;;;;;19.07;48.52;103945.38;5035544;28;20121;-68
2021/12/17 14:16:56;;;;;;;3.47;1.70;;;;;;;19.08;48.53;103951.56;5034700;28;20068;-68
2021/12/17 14:19:39;;;;;;;2.97;1.25;;;;;;;19.08;48.88;103943.63;5035511;28;20071;-71
2021/12/17 14:22:31;;;;;;;4.40;1.63;;;;;;;19.08;48.69;103949.75;5035818;28;20121;-65
2021/12/17 14:24:58;;;;;;;5.20;2.05;;;;;;;19.09;48.59;103937.41;5035211;28;20473;-65
2021/12/17 14:27:49;;;;;;;3.10;1.38;;;;;;;19.10;48.99;103955.84;5035603;28;20034;-64
2021/12/17 14:30:15;;;;;;;2.97;1.40;;;;;;;19.09;48.90;103955.91;5034706;28;20454;-64
2021/12/17 14:32:46;;;;;;;3.90;1.38;;;;;;;19.10;48.80;103958.50;5035302;28;20044;-65